sensor_id;sensor_type;location;lat;lon;timestamp;temperature;humidity
71173;DHT22;58875;51.996;4.504;2023-05-10T00:00:33;13.32;85.30
71173;DHT22;58875;51.996;4.504;2023-05-10T00:02:58;13.30;85.12
71173;DHT22;58875;51.996;4.504;2023-05-10T00:05:24;13.28;85.02
71173;DHT22;58875;51.996;4.504;2023-05-10T00:07:49;13.30;84.87
71173;DHT22;58875;51.996;4.504;2023-05-10T00:10:15;13.25;85.06
71173;DHT22;58875;51.996;4.504;2023-05-10T00:12:41;13.20;85.10
71173;DHT22;58875;51.996;4.504;2023-05-10T00:15:07;13.20;85.33
71173;DHT22;58875;51.996;4.504;2023-05-10T00:17:33;13.19;85.44
71173;DHT22;58875;51.996;4.504;2023-05-10T00:19:59;13.23;85.25
71173;DHT22;58875;51.996;4.504;2023-05-10T00:22:24;13.14;85.48
71173;DHT22;58875;51.996;4.504;2023-05-10T00:24:50;13.14;85.49
71173;DHT22;58875;51.996;4.504;2023-05-10T00:27:15;13.18;85.53
71173;DHT22;58875;51.996;4.504;2023-05-10T00:29:41;13.16;85.38
71173;DHT22;58875;51.996;4.504;2023-05-10T00:32:06;13.22;85.49
71173;DHT22;58875;51.996;4.504;2023-05-10T00:34:32;13.20;85.60
71173;DHT22;58875;51.996;4.504;2023-05-10T00:36:58;13.25;85.75
71173;DHT22;58875;51.996;4.504;2023-05-10T00:39:25;13.30;85.94
71173;DHT22;58875;51.996;4.504;2023-05-10T00:41:52;13.36;86.08
71173;DHT22;58875;51.996;4.504;2023-05-10T00:44:17;13.36;85.95
71173;DHT22;58875;51.996;4.504;2023-05-10T00:46:44;13.35;85.86
71173;DHT22;58875;51.996;4.504;2023-05-10T00:49:11;13.42;86.09
71173;DHT22;58875;51.996;4.504;2023-05-10T00:51:37;13.48;86.05
71173;DHT22;58875;51.996;4.504;2023-05-10T00:54:04;13.30;86.10
71173;DHT22;58875;51.996;4.504;2023-05-10T00:56:31;13.29;86.38
71173;DHT22;58875;51.996;4.504;2023-05-10T00:58:57;13.36;86.57
71173;DHT22;58875;51.996;4.504;2023-05-10T01:01:24;13.42;86.30
71173;DHT22;58875;51.996;4.504;2023-05-10T01:03:51;13.42;86.22
71173;DHT22;58875;51.996;4.504;2023-05-10T01:06:17;13.42;86.13
71173;DHT22;58875;51.996;4.504;2023-05-10T01:08:44;13.23;86.59
71173;DHT22;58875;51.996;4.504;2023-05-10T01:11:10;13.14;87.22
71173;DHT22;58875;51.996;4.504;2023-05-10T01:13:38;13.15;87.02
71173;DHT22;58875;51.996;4.504;2023-05-10T01:16:05;13.08;87.42
71173;DHT22;58875;51.996;4.504;2023-05-10T01:18:37;13.14;87.44
71173;DHT22;58875;51.996;4.504;2023-05-10T01:27:00;13.30;87.37
71173;DHT22;58875;51.996;4.504;2023-05-10T01:32:21;13.39;87.28
71173;DHT22;58875;51.996;4.504;2023-05-10T01:38:04;13.55;87.10
71173;DHT22;58875;51.996;4.504;2023-05-10T01:40:42;13.59;86.86
71173;DHT22;58875;51.996;4.504;2023-05-10T01:43:22;13.49;86.56
71173;DHT22;58875;51.996;4.504;2023-05-10T01:46:02;13.50;87.03
71173;DHT22;58875;51.996;4.504;2023-05-10T01:48:41;13.55;86.88
71173;DHT22;58875;51.996;4.504;2023-05-10T01:51:15;13.53;86.84
71173;DHT22;58875;51.996;4.504;2023-05-10T01:53:44;13.49;86.94
71173;DHT22;58875;51.996;4.504;2023-05-10T01:56:13;13.52;87.09
71173;DHT22;58875;51.996;4.504;2023-05-10T01:58:43;13.49;86.99
71173;DHT22;58875;51.996;4.504;2023-05-10T02:01:12;13.49;87.13
71173;DHT22;58875;51.996;4.504;2023-05-10T02:03:42;13.50;87.22
71173;DHT22;58875;51.996;4.504;2023-05-10T02:06:10;13.50;87.36
71173;DHT22;58875;51.996;4.504;2023-05-10T02:08:41;13.55;87.19
71173;DHT22;58875;51.996;4.504;2023-05-10T02:11:08;13.42;87.23
71173;DHT22;58875;51.996;4.504;2023-05-10T02:13:37;13.40;87.39
71173;DHT22;58875;51.996;4.504;2023-05-10T02:16:05;13.39;87.63
71173;DHT22;58875;51.996;4.504;2023-05-10T02:18:33;13.42;87.65
71173;DHT22;58875;51.996;4.504;2023-05-10T02:21:02;13.46;87.48
71173;DHT22;58875;51.996;4.504;2023-05-10T02:23:29;13.46;87.43
71173;DHT22;58875;51.996;4.504;2023-05-10T02:25:56;13.49;87.35
71173;DHT22;58875;51.996;4.504;2023-05-10T02:28:27;13.39;87.54
71173;DHT22;58875;51.996;4.504;2023-05-10T02:30:55;13.38;87.65
71173;DHT22;58875;51.996;4.504;2023-05-10T02:33:22;13.42;87.50
71173;DHT22;58875;51.996;4.504;2023-05-10T02:35:50;13.39;87.52
71173;DHT22;58875;51.996;4.504;2023-05-10T02:38:19;13.43;87.63
71173;DHT22;58875;51.996;4.504;2023-05-10T02:40:47;13.48;87.55
71173;DHT22;58875;51.996;4.504;2023-05-10T02:43:15;13.49;87.51
71173;DHT22;58875;51.996;4.504;2023-05-10T02:45:44;13.49;87.46
71173;DHT22;58875;51.996;4.504;2023-05-10T02:48:12;13.45;87.33
71173;DHT22;58875;51.996;4.504;2023-05-10T02:50:44;13.38;87.65
71173;DHT22;58875;51.996;4.504;2023-05-10T02:53:15;13.42;87.72
71173;DHT22;58875;51.996;4.504;2023-05-10T02:55:49;13.45;87.51
71173;DHT22;58875;51.996;4.504;2023-05-10T02:58:16;13.43;87.65
71173;DHT22;58875;51.996;4.504;2023-05-10T03:00:43;13.48;87.59
71173;DHT22;58875;51.996;4.504;2023-05-10T03:03:09;13.49;87.40
71173;DHT22;58875;51.996;4.504;2023-05-10T03:05:35;13.42;87.43
71173;DHT22;58875;51.996;4.504;2023-05-10T03:08:01;13.48;87.51
71173;DHT22;58875;51.996;4.504;2023-05-10T03:10:32;13.40;87.41
71173;DHT22;58875;51.996;4.504;2023-05-10T03:13:16;13.45;87.49
71173;DHT22;58875;51.996;4.504;2023-05-10T03:18:53;13.36;87.47
71173;DHT22;58875;51.996;4.504;2023-05-10T03:21:29;13.32;87.73
71173;DHT22;58875;51.996;4.504;2023-05-10T03:24:09;13.42;87.63
71173;DHT22;58875;51.996;4.504;2023-05-10T03:26:38;13.52;87.33
71173;DHT22;58875;51.996;4.504;2023-05-10T03:29:08;13.45;87.12
71173;DHT22;58875;51.996;4.504;2023-05-10T03:31:35;13.43;87.18
71173;DHT22;58875;51.996;4.504;2023-05-10T03:34:01;13.39;87.16
71173;DHT22;58875;51.996;4.504;2023-05-10T03:36:27;13.34;87.31
71173;DHT22;58875;51.996;4.504;2023-05-10T03:38:52;13.32;87.48
71173;DHT22;58875;51.996;4.504;2023-05-10T03:41:21;13.34;87.41
71173;DHT22;58875;51.996;4.504;2023-05-10T03:43:47;13.40;87.45
71173;DHT22;58875;51.996;4.504;2023-05-10T03:46:12;13.40;87.28
71173;DHT22;58875;51.996;4.504;2023-05-10T03:48:38;13.32;87.40
71173;DHT22;58875;51.996;4.504;2023-05-10T03:51:03;13.39;87.50
71173;DHT22;58875;51.996;4.504;2023-05-10T03:53:29;13.48;87.37
71173;DHT22;58875;51.996;4.504;2023-05-10T03:55:54;13.52;87.07
71173;DHT22;58875;51.996;4.504;2023-05-10T03:58:20;13.55;86.81
71173;DHT22;58875;51.996;4.504;2023-05-10T04:00:45;13.42;86.92
71173;DHT22;58875;51.996;4.504;2023-05-10T04:03:12;13.38;87.23
71173;DHT22;58875;51.996;4.504;2023-05-10T04:05:38;13.39;87.17
71173;DHT22;58875;51.996;4.504;2023-05-10T04:08:04;13.40;87.23
71173;DHT22;58875;51.996;4.504;2023-05-10T04:10:31;13.39;87.16
71173;DHT22;58875;51.996;4.504;2023-05-10T04:12:57;13.26;87.47
71173;DHT22;58875;51.996;4.504;2023-05-10T04:15:23;13.28;87.64
71173;DHT22;58875;51.996;4.504;2023-05-10T04:17:48;13.23;87.35
71173;DHT22;58875;51.996;4.504;2023-05-10T04:20:14;13.19;87.60
71173;DHT22;58875;51.996;4.504;2023-05-10T04:22:40;13.14;87.47
71173;DHT22;58875;51.996;4.504;2023-05-10T04:25:06;13.12;87.80
71173;DHT22;58875;51.996;4.504;2023-05-10T04:27:33;13.14;87.93
71173;DHT22;58875;51.996;4.504;2023-05-10T04:29:58;13.18;87.67
71173;DHT22;58875;51.996;4.504;2023-05-10T04:32:24;13.15;87.67
71173;DHT22;58875;51.996;4.504;2023-05-10T04:34:50;13.09;87.78
71173;DHT22;58875;51.996;4.504;2023-05-10T04:37:17;13.11;87.36
71173;DHT22;58875;51.996;4.504;2023-05-10T04:39:42;12.98;87.85
71173;DHT22;58875;51.996;4.504;2023-05-10T04:42:08;13.05;87.96
71173;DHT22;58875;51.996;4.504;2023-05-10T04:44:34;12.99;87.74
71173;DHT22;58875;51.996;4.504;2023-05-10T04:47:00;12.91;87.78
71173;DHT22;58875;51.996;4.504;2023-05-10T04:49:27;12.94;87.94
71173;DHT22;58875;51.996;4.504;2023-05-10T04:51:53;12.98;87.83
71173;DHT22;58875;51.996;4.504;2023-05-10T04:54:20;13.01;87.72
71173;DHT22;58875;51.996;4.504;2023-05-10T04:56:45;13.07;87.89
71173;DHT22;58875;51.996;4.504;2023-05-10T04:59:11;13.01;87.51
71173;DHT22;58875;51.996;4.504;2023-05-10T05:01:36;13.07;87.23
71173;DHT22;58875;51.996;4.504;2023-05-10T05:04:02;13.11;87.25
71173;DHT22;58875;51.996;4.504;2023-05-10T05:06:28;13.12;86.86
71173;DHT22;58875;51.996;4.504;2023-05-10T05:08:55;13.12;87.08
71173;DHT22;58875;51.996;4.504;2023-05-10T05:11:20;13.14;86.92
71173;DHT22;58875;51.996;4.504;2023-05-10T05:13:46;13.04;86.54
71173;DHT22;58875;51.996;4.504;2023-05-10T05:16:12;12.99;86.65
71173;DHT22;58875;51.996;4.504;2023-05-10T05:18:37;13.01;86.67
71173;DHT22;58875;51.996;4.504;2023-05-10T05:21:03;13.07;86.65
71173;DHT22;58875;51.996;4.504;2023-05-10T05:23:38;13.08;86.30
71173;DHT22;58875;51.996;4.504;2023-05-10T05:26:04;13.07;86.29
71173;DHT22;58875;51.996;4.504;2023-05-10T05:28:29;13.16;86.43
71173;DHT22;58875;51.996;4.504;2023-05-10T05:30:58;13.12;86.00
71173;DHT22;58875;51.996;4.504;2023-05-10T05:33:23;13.12;86.02
71173;DHT22;58875;51.996;4.504;2023-05-10T05:35:49;13.20;86.24
71173;DHT22;58875;51.996;4.504;2023-05-10T05:38:16;13.20;85.81
71173;DHT22;58875;51.996;4.504;2023-05-10T05:40:44;13.16;85.60
71173;DHT22;58875;51.996;4.504;2023-05-10T05:43:10;13.04;85.89
71173;DHT22;58875;51.996;4.504;2023-05-10T05:45:36;13.09;86.31
71173;DHT22;58875;51.996;4.504;2023-05-10T05:48:02;13.16;86.19
71173;DHT22;58875;51.996;4.504;2023-05-10T05:50:27;13.30;86.34
71173;DHT22;58875;51.996;4.504;2023-05-10T05:52:53;13.43;86.19
71173;DHT22;58875;51.996;4.504;2023-05-10T05:55:19;13.49;85.90
71173;DHT22;58875;51.996;4.504;2023-05-10T05:57:44;13.49;85.69
71173;DHT22;58875;51.996;4.504;2023-05-10T06:00:10;13.50;85.84
71173;DHT22;58875;51.996;4.504;2023-05-10T06:02:35;13.56;85.44
71173;DHT22;58875;51.996;4.504;2023-05-10T06:05:01;13.58;85.51
71173;DHT22;58875;51.996;4.504;2023-05-10T06:07:27;13.58;85.11
71173;DHT22;58875;51.996;4.504;2023-05-10T06:09:53;13.60;85.34
71173;DHT22;58875;51.996;4.504;2023-05-10T06:12:18;13.69;85.26
71173;DHT22;58875;51.996;4.504;2023-05-10T06:14:44;13.80;85.20
71173;DHT22;58875;51.996;4.504;2023-05-10T06:17:09;13.96;84.72
71173;DHT22;58875;51.996;4.504;2023-05-10T06:22:02;14.17;84.37
71173;DHT22;58875;51.996;4.504;2023-05-10T06:24:28;14.38;84.19
71173;DHT22;58875;51.996;4.504;2023-05-10T06:26:54;14.51;84.37
71173;DHT22;58875;51.996;4.504;2023-05-10T06:29:20;14.52;83.52
71173;DHT22;58875;51.996;4.504;2023-05-10T06:31:45;14.48;83.05
71173;DHT22;58875;51.996;4.504;2023-05-10T06:34:11;14.78;83.25
71173;DHT22;58875;51.996;4.504;2023-05-10T06:36:37;14.83;82.27
71173;DHT22;58875;51.996;4.504;2023-05-10T06:39:03;14.90;82.40
71173;DHT22;58875;51.996;4.504;2023-05-10T06:41:29;15.04;82.65
71173;DHT22;58875;51.996;4.504;2023-05-10T06:43:54;15.18;81.82
71173;DHT22;58875;51.996;4.504;2023-05-10T06:46:20;15.03;81.06
71173;DHT22;58875;51.996;4.504;2023-05-10T06:48:45;15.04;81.32
71173;DHT22;58875;51.996;4.504;2023-05-10T06:51:11;15.07;81.13
71173;DHT22;58875;51.996;4.504;2023-05-10T06:53:36;14.98;81.28
71173;DHT22;58875;51.996;4.504;2023-05-10T06:56:02;14.76;80.96
71173;DHT22;58875;51.996;4.504;2023-05-10T06:58:28;14.71;81.29
71173;DHT22;58875;51.996;4.504;2023-05-10T07:00:54;14.58;82.03
71173;DHT22;58875;51.996;4.504;2023-05-10T07:03:19;14.68;82.28
71173;DHT22;58875;51.996;4.504;2023-05-10T07:05:45;14.57;81.69
71173;DHT22;58875;51.996;4.504;2023-05-10T07:08:10;14.57;82.23
71173;DHT22;58875;51.996;4.504;2023-05-10T07:10:38;14.73;82.13
71173;DHT22;58875;51.996;4.504;2023-05-10T07:13:04;14.82;81.95
71173;DHT22;58875;51.996;4.504;2023-05-10T07:15:29;14.80;81.59
71173;DHT22;58875;51.996;4.504;2023-05-10T07:17:55;14.85;81.61
71173;DHT22;58875;51.996;4.504;2023-05-10T07:20:20;14.89;81.93
71173;DHT22;58875;51.996;4.504;2023-05-10T07:22:46;15.07;82.33
71173;DHT22;58875;51.996;4.504;2023-05-10T07:25:11;15.18;81.56
71173;DHT22;58875;51.996;4.504;2023-05-10T07:27:37;15.06;80.82
71173;DHT22;58875;51.996;4.504;2023-05-10T07:30:02;15.06;81.22
71173;DHT22;58875;51.996;4.504;2023-05-10T07:32:28;15.06;80.94
71173;DHT22;58875;51.996;4.504;2023-05-10T07:34:54;15.13;81.62
71173;DHT22;58875;51.996;4.504;2023-05-10T07:37:19;15.13;81.15
71173;DHT22;58875;51.996;4.504;2023-05-10T07:39:44;15.11;81.19
71173;DHT22;58875;51.996;4.504;2023-05-10T07:42:10;15.07;81.48
71173;DHT22;58875;51.996;4.504;2023-05-10T07:44:35;14.95;80.85
71173;DHT22;58875;51.996;4.504;2023-05-10T07:47:01;14.86;81.60
71173;DHT22;58875;51.996;4.504;2023-05-10T07:49:26;14.86;81.90
71173;DHT22;58875;51.996;4.504;2023-05-10T07:51:52;14.89;81.86
71173;DHT22;58875;51.996;4.504;2023-05-10T07:54:17;14.85;81.76
71173;DHT22;58875;51.996;4.504;2023-05-10T07:56:43;14.88;81.96
71173;DHT22;58875;51.996;4.504;2023-05-10T07:59:17;14.75;81.33
71173;DHT22;58875;51.996;4.504;2023-05-10T08:01:43;14.67;81.86
71173;DHT22;58875;51.996;4.504;2023-05-10T08:04:09;14.48;82.03
71173;DHT22;58875;51.996;4.504;2023-05-10T08:06:34;14.44;82.44
71173;DHT22;58875;51.996;4.504;2023-05-10T08:09:00;14.39;82.55
71173;DHT22;58875;51.996;4.504;2023-05-10T08:11:26;14.39;82.88
71173;DHT22;58875;51.996;4.504;2023-05-10T08:13:53;14.54;82.72
71173;DHT22;58875;51.996;4.504;2023-05-10T08:16:19;14.48;82.89
71173;DHT22;58875;51.996;4.504;2023-05-10T08:18:46;14.48;82.67
71173;DHT22;58875;51.996;4.504;2023-05-10T08:21:13;14.55;82.74
71173;DHT22;58875;51.996;4.504;2023-05-10T08:23:39;14.67;82.69
71173;DHT22;58875;51.996;4.504;2023-05-10T08:26:05;14.88;82.70
71173;DHT22;58875;51.996;4.504;2023-05-10T08:28:30;15.06;81.97
71173;DHT22;58875;51.996;4.504;2023-05-10T08:30:56;15.11;80.99
71173;DHT22;58875;51.996;4.504;2023-05-10T08:33:21;15.14;80.97
71173;DHT22;58875;51.996;4.504;2023-05-10T08:35:47;15.34;80.91
71173;DHT22;58875;51.996;4.504;2023-05-10T08:38:12;15.31;80.51
71173;DHT22;58875;51.996;4.504;2023-05-10T08:40:41;15.31;80.14
71173;DHT22;58875;51.996;4.504;2023-05-10T08:43:11;15.36;80.42
71173;DHT22;58875;51.996;4.504;2023-05-10T08:45:42;15.40;80.09
71173;DHT22;58875;51.996;4.504;2023-05-10T08:48:10;15.43;79.80
71173;DHT22;58875;51.996;4.504;2023-05-10T08:50:37;15.44;79.40
71173;DHT22;58875;51.996;4.504;2023-05-10T08:53:11;15.33;79.39
71173;DHT22;58875;51.996;4.504;2023-05-10T08:55:38;15.37;79.91
71173;DHT22;58875;51.996;4.504;2023-05-10T08:58:04;15.24;79.45
71173;DHT22;58875;51.996;4.504;2023-05-10T09:00:30;15.27;80.07
71173;DHT22;58875;51.996;4.504;2023-05-10T09:03:00;15.33;79.75
71173;DHT22;58875;51.996;4.504;2023-05-10T09:05:27;15.36;79.91
71173;DHT22;58875;51.996;4.504;2023-05-10T09:07:53;15.39;80.32
71173;DHT22;58875;51.996;4.504;2023-05-10T09:10:19;15.41;80.04
71173;DHT22;58875;51.996;4.504;2023-05-10T09:12:45;15.24;79.18
71173;DHT22;58875;51.996;4.504;2023-05-10T09:15:17;15.33;79.96
71173;DHT22;58875;51.996;4.504;2023-05-10T09:17:45;15.41;80.00
71173;DHT22;58875;51.996;4.504;2023-05-10T09:20:11;15.53;79.65
71173;DHT22;58875;51.996;4.504;2023-05-10T09:22:37;15.29;79.85
71173;DHT22;58875;51.996;4.504;2023-05-10T09:25:11;15.23;80.29
71173;DHT22;58875;51.996;4.504;2023-05-10T09:27:43;15.27;80.52
71173;DHT22;58875;51.996;4.504;2023-05-10T09:30:10;15.43;80.42
71173;DHT22;58875;51.996;4.504;2023-05-10T09:32:37;15.36;80.10
71173;DHT22;58875;51.996;4.504;2023-05-10T09:35:10;15.40;80.72
71173;DHT22;58875;51.996;4.504;2023-05-10T09:37:36;15.55;80.20
71173;DHT22;58875;51.996;4.504;2023-05-10T09:40:08;15.62;79.62
71173;DHT22;58875;51.996;4.504;2023-05-10T09:42:36;15.82;80.01
71173;DHT22;58875;51.996;4.504;2023-05-10T09:45:03;15.85;79.25
71173;DHT22;58875;51.996;4.504;2023-05-10T09:47:31;15.97;79.06
71173;DHT22;58875;51.996;4.504;2023-05-10T09:49:58;16.08;78.63
71173;DHT22;58875;51.996;4.504;2023-05-10T09:52:31;16.21;78.28
71173;DHT22;58875;51.996;4.504;2023-05-10T09:55:10;16.25;77.40
71173;DHT22;58875;51.996;4.504;2023-05-10T09:57:36;16.55;78.19
71173;DHT22;58875;51.996;4.504;2023-05-10T10:02:30;16.62;76.16
71173;DHT22;58875;51.996;4.504;2023-05-10T10:04:56;16.40;75.55
71173;DHT22;58875;51.996;4.504;2023-05-10T10:07:25;16.39;76.30
71173;DHT22;58875;51.996;4.504;2023-05-10T10:09:53;16.60;76.26
71173;DHT22;58875;51.996;4.504;2023-05-10T10:12:19;16.84;76.21
71173;DHT22;58875;51.996;4.504;2023-05-10T10:14:46;17.20;76.03
71173;DHT22;58875;51.996;4.504;2023-05-10T10:17:13;17.12;74.55
71173;DHT22;58875;51.996;4.504;2023-05-10T10:19:38;17.22;74.33
71173;DHT22;58875;51.996;4.504;2023-05-10T10:22:05;17.43;74.57
71173;DHT22;58875;51.996;4.504;2023-05-10T10:24:31;17.62;72.73
71173;DHT22;58875;51.996;4.504;2023-05-10T10:27:26;16.81;72.45
71173;DHT22;58875;51.996;4.504;2023-05-10T10:32:47;15.91;75.53
71173;DHT22;58875;51.996;4.504;2023-05-10T10:35:17;15.75;76.40
71173;DHT22;58875;51.996;4.504;2023-05-10T10:37:47;15.91;77.29
71173;DHT22;58875;51.996;4.504;2023-05-10T10:40:27;16.16;76.82
71173;DHT22;58875;51.996;4.504;2023-05-10T10:42:53;16.40;76.34
71173;DHT22;58875;51.996;4.504;2023-05-10T10:45:20;16.53;75.54
71173;DHT22;58875;51.996;4.504;2023-05-10T10:47:46;16.59;75.29
71173;DHT22;58875;51.996;4.504;2023-05-10T10:50:12;16.26;75.90
71173;DHT22;58875;51.996;4.504;2023-05-10T10:52:45;16.36;76.78
71173;DHT22;58875;51.996;4.504;2023-05-10T10:55:17;16.91;75.92
71173;DHT22;58875;51.996;4.504;2023-05-10T11:00:23;17.18;74.60
71173;DHT22;58875;51.996;4.504;2023-05-10T11:02:54;17.32;73.94
71173;DHT22;58875;51.996;4.504;2023-05-10T11:08:09;17.06;73.93
71173;DHT22;58875;51.996;4.504;2023-05-10T11:10:35;17.18;75.21
71173;DHT22;58875;51.996;4.504;2023-05-10T11:13:06;17.45;73.31
71173;DHT22;58875;51.996;4.504;2023-05-10T11:15:37;17.58;72.16
71173;DHT22;58875;51.996;4.504;2023-05-10T11:18:23;17.53;73.51
71173;DHT22;58875;51.996;4.504;2023-05-10T11:21:00;17.27;72.39
71173;DHT22;58875;51.996;4.504;2023-05-10T11:26:09;17.17;73.75
71173;DHT22;58875;51.996;4.504;2023-05-10T11:28:48;17.01;74.27
71173;DHT22;58875;51.996;4.504;2023-05-10T11:31:15;17.20;73.53
71173;DHT22;58875;51.996;4.504;2023-05-10T11:33:49;17.48;72.95
71173;DHT22;58875;51.996;4.504;2023-05-10T11:36:20;17.82;70.25
71173;DHT22;58875;51.996;4.504;2023-05-10T11:38:47;17.53;70.62
71173;DHT22;58875;51.996;4.504;2023-05-10T11:41:13;17.49;71.82
71173;DHT22;58875;51.996;4.504;2023-05-10T11:43:40;17.38;72.03
71173;DHT22;58875;51.996;4.504;2023-05-10T11:46:12;17.30;72.60
71173;DHT22;58875;51.996;4.504;2023-05-10T11:48:42;17.34;71.40
71173;DHT22;58875;51.996;4.504;2023-05-10T11:51:09;17.43;73.13
71173;DHT22;58875;51.996;4.504;2023-05-10T11:53:36;17.38;71.18
71173;DHT22;58875;51.996;4.504;2023-05-10T11:56:11;17.43;71.84
71173;DHT22;58875;51.996;4.504;2023-05-10T11:58:39;17.34;71.42
71173;DHT22;58875;51.996;4.504;2023-05-10T12:01:06;17.22;72.05
71173;DHT22;58875;51.996;4.504;2023-05-10T12:03:33;17.11;71.20
71173;DHT22;58875;51.996;4.504;2023-05-10T12:06:00;17.04;71.38
71173;DHT22;58875;51.996;4.504;2023-05-10T12:08:28;16.79;72.01
71173;DHT22;58875;51.996;4.504;2023-05-10T12:11:04;16.40;72.66
71173;DHT22;58875;51.996;4.504;2023-05-10T12:13:30;16.34;73.74
71173;DHT22;58875;51.996;4.504;2023-05-10T12:15:59;16.56;74.05
71173;DHT22;58875;51.996;4.504;2023-05-10T12:18:25;16.62;73.27
71173;DHT22;58875;51.996;4.504;2023-05-10T12:20:52;16.62;73.99
71173;DHT22;58875;51.996;4.504;2023-05-10T12:23:20;16.39;73.66
71173;DHT22;58875;51.996;4.504;2023-05-10T12:25:46;16.15;74.20
71173;DHT22;58875;51.996;4.504;2023-05-10T12:28:11;15.95;74.74
71173;DHT22;58875;51.996;4.504;2023-05-10T12:30:38;15.95;75.17
71173;DHT22;58875;51.996;4.504;2023-05-10T12:33:12;15.64;75.90
71173;DHT22;58875;51.996;4.504;2023-05-10T12:38:34;15.58;76.46
71173;DHT22;58875;51.996;4.504;2023-05-10T12:41:06;15.49;76.72
71173;DHT22;58875;51.996;4.504;2023-05-10T12:43:32;15.77;77.28
71173;DHT22;58875;51.996;4.504;2023-05-10T12:45:58;16.04;75.89
71173;DHT22;58875;51.996;4.504;2023-05-10T12:48:29;16.30;74.55
71173;DHT22;58875;51.996;4.504;2023-05-10T12:50:56;16.18;73.68
71173;DHT22;58875;51.996;4.504;2023-05-10T12:53:22;16.29;74.86
71173;DHT22;58875;51.996;4.504;2023-05-10T12:55:48;16.29;73.94
71173;DHT22;58875;51.996;4.504;2023-05-10T12:58:13;16.39;75.49
71173;DHT22;58875;51.996;4.504;2023-05-10T13:00:39;16.63;73.95
71173;DHT22;58875;51.996;4.504;2023-05-10T13:03:05;16.77;73.97
71173;DHT22;58875;51.996;4.504;2023-05-10T13:05:34;17.08;73.42
71173;DHT22;58875;51.996;4.504;2023-05-10T13:08:00;17.41;72.01
71173;DHT22;58875;51.996;4.504;2023-05-10T13:10:26;17.27;70.98
71173;DHT22;58875;51.996;4.504;2023-05-10T13:12:51;17.17;71.00
71173;DHT22;58875;51.996;4.504;2023-05-10T13:15:17;16.88;70.70
71173;DHT22;58875;51.996;4.504;2023-05-10T13:17:43;16.59;72.10
71173;DHT22;58875;51.996;4.504;2023-05-10T13:20:09;16.32;72.96
71173;DHT22;58875;51.996;4.504;2023-05-10T13:22:35;16.15;74.23
71173;DHT22;58875;51.996;4.504;2023-05-10T13:25:04;16.18;74.18
71173;DHT22;58875;51.996;4.504;2023-05-10T13:27:29;16.28;74.57
71173;DHT22;58875;51.996;4.504;2023-05-10T13:29:55;16.29;73.80
71173;DHT22;58875;51.996;4.504;2023-05-10T13:32:21;16.29;73.96
71173;DHT22;58875;51.996;4.504;2023-05-10T13:34:46;16.33;73.98
71173;DHT22;58875;51.996;4.504;2023-05-10T13:37:12;16.13;74.07
71173;DHT22;58875;51.996;4.504;2023-05-10T13:39:37;15.99;74.37
71173;DHT22;58875;51.996;4.504;2023-05-10T13:42:04;16.04;75.03
71173;DHT22;58875;51.996;4.504;2023-05-10T13:44:29;16.25;75.62
71173;DHT22;58875;51.996;4.504;2023-05-10T13:46:56;16.45;75.36
71173;DHT22;58875;51.996;4.504;2023-05-10T13:49:21;16.62;73.77
71173;DHT22;58875;51.996;4.504;2023-05-10T13:51:47;16.49;73.41
71173;DHT22;58875;51.996;4.504;2023-05-10T13:54:13;16.45;74.66
71173;DHT22;58875;51.996;4.504;2023-05-10T13:56:40;16.48;73.41
71173;DHT22;58875;51.996;4.504;2023-05-10T13:59:06;16.43;74.13
71173;DHT22;58875;51.996;4.504;2023-05-10T14:01:33;16.48;74.00
71173;DHT22;58875;51.996;4.504;2023-05-10T14:03:59;16.48;73.78
71173;DHT22;58875;51.996;4.504;2023-05-10T14:06:25;16.48;73.67
71173;DHT22;58875;51.996;4.504;2023-05-10T14:08:50;16.55;73.83
71173;DHT22;58875;51.996;4.504;2023-05-10T14:11:15;16.74;73.91
71173;DHT22;58875;51.996;4.504;2023-05-10T14:13:41;16.74;73.40
71173;DHT22;58875;51.996;4.504;2023-05-10T14:16:07;16.73;72.38
71173;DHT22;58875;51.996;4.504;2023-05-10T14:18:32;16.67;73.62
71173;DHT22;58875;51.996;4.504;2023-05-10T14:20:58;16.74;73.28
71173;DHT22;58875;51.996;4.504;2023-05-10T14:23:23;16.81;72.69
71173;DHT22;58875;51.996;4.504;2023-05-10T14:25:50;16.73;73.24
71173;DHT22;58875;51.996;4.504;2023-05-10T14:28:16;16.71;72.62
71173;DHT22;58875;51.996;4.504;2023-05-10T14:30:43;16.67;72.35
71173;DHT22;58875;51.996;4.504;2023-05-10T14:33:10;16.62;73.15
71173;DHT22;58875;51.996;4.504;2023-05-10T14:35:35;16.71;73.35
71173;DHT22;58875;51.996;4.504;2023-05-10T14:38:02;16.97;72.95
71173;DHT22;58875;51.996;4.504;2023-05-10T14:40:29;16.95;72.29
71173;DHT22;58875;51.996;4.504;2023-05-10T14:42:54;17.04;72.45
71173;DHT22;58875;51.996;4.504;2023-05-10T14:45:20;17.07;71.85
71173;DHT22;58875;51.996;4.504;2023-05-10T14:47:46;17.04;72.26
71173;DHT22;58875;51.996;4.504;2023-05-10T14:50:11;17.08;71.66
71173;DHT22;58875;51.996;4.504;2023-05-10T14:52:37;17.12;72.54
71173;DHT22;58875;51.996;4.504;2023-05-10T14:55:03;17.08;71.66
71173;DHT22;58875;51.996;4.504;2023-05-10T14:57:28;17.11;72.44
71173;DHT22;58875;51.996;4.504;2023-05-10T14:59:55;17.11;72.13
71173;DHT22;58875;51.996;4.504;2023-05-10T15:02:21;17.24;71.73
71173;DHT22;58875;51.996;4.504;2023-05-10T15:04:47;17.28;71.04
71173;DHT22;58875;51.996;4.504;2023-05-10T15:07:12;17.41;71.33
71173;DHT22;58875;51.996;4.504;2023-05-10T15:09:40;17.38;70.81
71173;DHT22;58875;51.996;4.504;2023-05-10T15:12:06;17.24;69.92
71173;DHT22;58875;51.996;4.504;2023-05-10T15:14:32;16.95;70.88
71173;DHT22;58875;51.996;4.504;2023-05-10T15:16:59;16.85;72.46
71173;DHT22;58875;51.996;4.504;2023-05-10T15:19:27;16.93;72.14
71173;DHT22;58875;51.996;4.504;2023-05-10T15:21:57;16.80;71.98
71173;DHT22;58875;51.996;4.504;2023-05-10T15:24:23;16.81;72.65
71173;DHT22;58875;51.996;4.504;2023-05-10T15:26:48;16.97;72.73
71173;DHT22;58875;51.996;4.504;2023-05-10T15:29:14;17.08;71.73
71173;DHT22;58875;51.996;4.504;2023-05-10T15:31:49;17.01;72.16
71173;DHT22;58875;51.996;4.504;2023-05-10T15:34:16;16.90;71.56
71173;DHT22;58875;51.996;4.504;2023-05-10T15:36:42;16.95;71.71
71173;DHT22;58875;51.996;4.504;2023-05-10T15:39:07;17.01;71.61
71173;DHT22;58875;51.996;4.504;2023-05-10T15:41:35;17.00;71.27
71173;DHT22;58875;51.996;4.504;2023-05-10T15:44:00;17.04;72.13
71173;DHT22;58875;51.996;4.504;2023-05-10T15:46:30;17.31;72.22
71173;DHT22;58875;51.996;4.504;2023-05-10T15:48:57;17.36;70.31
71173;DHT22;58875;51.996;4.504;2023-05-10T15:51:24;17.31;70.29
71173;DHT22;58875;51.996;4.504;2023-05-10T15:53:49;17.34;70.07
71173;DHT22;58875;51.996;4.504;2023-05-10T15:56:15;17.34;70.21
71173;DHT22;58875;51.996;4.504;2023-05-10T15:58:41;17.21;70.98
71173;DHT22;58875;51.996;4.504;2023-05-10T16:01:09;17.06;70.87
71173;DHT22;58875;51.996;4.504;2023-05-10T16:03:34;16.99;71.12